Time;durP1;ratioP1;P1;durP2;ratioP2;P2;SDS_P1;SDS_P2;PMS_P1;PMS_P2;Temp;Humidity;BMP_temperature;BMP_pressure;BME280_temperature;BME280_humidity;BME280_pressure;Samples;Min_cycle;Max_cycle;Signal;HPM_P1;HPM_P2
2022/02/27 00:00:47;;;;;;;12.10;3.00;;;;;;;;;;5037586;28;20182;-84
2022/02/27 00:03:14;;;;;;;4.37;1.97;;;;;;;;;;5040004;28;20190;-84
2022/02/27 00:05:40;;;;;;;6.33;2.50;;;;;;;;;;5040626;28;20181;-84
2022/02/27 00:08:06;;;;;;;8.77;4.37;;;;;;;;;;5014918;28;20286;-84
2022/02/27 00:10:32;;;;;;;9.77;2.77;;;;;;;;;;5028729;28;20622;-84
2022/02/27 00:12:58;;;;;;;3.53;1.80;;;;;;;;;;5037785;28;20171;-84
2022/02/27 00:15:24;;;;;;;4.20;1.93;;;;;;;;;;5041457;28;20169;-84
2022/02/27 00:17:50;;;;;;;3.20;1.70;;;;;;;;;;5047102;28;20709;-84
2022/02/27 00:20:17;;;;;;;6.03;1.97;;;;;;;;;;5033102;28;20707;-84
2022/02/27 00:22:43;;;;;;;4.43;2.40;;;;;;;;;;5003350;28;20211;-84
2022/02/27 00:25:09;;;;;;;3.40;1.80;;;;;;;;;;5030488;28;20354;-84
2022/02/27 00:27:36;;;;;;;5.43;2.30;;;;;;;;;;5034287;28;20301;-83
2022/02/27 00:30:02;;;;;;;6.27;2.13;;;;;;;;;;5034677;28;20182;-84
2022/02/27 00:32:29;;;;;;;5.97;2.10;;;;;;;;;;5024035;28;20277;-84
2022/02/27 00:34:55;;;;;;;6.33;2.50;;;;;;;;;;5035134;28;20556;-84
2022/02/27 00:37:21;;;;;;;4.43;2.30;;;;;;;;;;5038287;28;20186;-84
2022/02/27 00:39:47;;;;;;;4.77;2.07;;;;;;;;;;5048059;28;20665;-84
2022/02/27 00:42:13;;;;;;;9.00;2.87;;;;;;;;;;5036216;28;20229;-83
2022/02/27 00:44:39;;;;;;;6.30;1.83;;;;;;;;;;5035250;28;20601;-83
2022/02/27 00:47:06;;;;;;;6.87;2.33;;;;;;;;;;5046758;28;20177;-83
2022/02/27 00:49:32;;;;;;;9.67;2.63;;;;;;;;;;5024261;28;20600;-83
2022/02/27 00:51:58;;;;;;;5.57;2.00;;;;;;;;;;5035946;28;20649;-83
2022/02/27 00:54:24;;;;;;;10.73;2.17;;;;;;;;;;5021569;28;20195;-83
2022/02/27 00:56:50;;;;;;;6.00;2.90;;;;;;;;;;5010495;28;20187;-84
2022/02/27 00:59:16;;;;;;;9.00;3.20;;;;;;;;;;5029849;28;20206;-82
2022/02/27 01:01:42;;;;;;;5.90;2.13;;;;;;;;;;5036618;28;20205;-84
2022/02/27 01:04:08;;;;;;;5.70;2.27;;;;;;;;;;5027875;28;20265;-83
2022/02/27 01:06:34;;;;;;;9.07;3.07;;;;;;;;;;5050768;28;20677;-85
2022/02/27 01:09:00;;;;;;;8.07;2.47;;;;;;;;;;5037950;28;20217;-84
2022/02/27 01:11:30;;;;;;;4.07;2.30;;;;;;;;;;5036943;28;20190;-84
2022/02/27 01:13:56;;;;;;;4.30;2.23;;;;;;;;;;5047972;28;20185;-84
2022/02/27 01:16:23;;;;;;;7.13;2.20;;;;;;;;;;5022598;28;20275;-84
2022/02/27 01:18:49;;;;;;;4.70;2.20;;;;;;;;;;5027720;28;20211;-83
2022/02/27 01:21:15;;;;;;;4.93;2.13;;;;;;;;;;5025765;28;20228;-84
2022/02/27 01:23:42;;;;;;;4.37;1.83;;;;;;;;;;5035893;28;20178;-83
2022/02/27 01:26:09;;;;;;;7.63;2.73;;;;;;;;;;5035599;28;20261;-84
2022/02/27 01:28:35;;;;;;;7.93;3.47;;;;;;;;;;5048010;28;20209;-84
2022/02/27 01:31:01;;;;;;;5.77;2.03;;;;;;;;;;5034822;28;20728;-81
2022/02/27 01:33:27;;;;;;;5.07;2.27;;;;;;;;;;5029651;28;20183;-83
2022/02/27 01:35:53;;;;;;;7.67;2.30;;;;;;;;;;5032147;28;20186;-82
2022/02/27 01:38:19;;;;;;;7.90;3.20;;;;;;;;;;5035825;28;20221;-83
2022/02/27 01:40:45;;;;;;;8.10;2.53;;;;;;;;;;5049737;28;20186;-82
2022/02/27 01:43:11;;;;;;;8.40;2.97;;;;;;;;;;5038043;28;20209;-82
2022/02/27 01:45:37;;;;;;;5.90;3.00;;;;;;;;;;5046317;28;20173;-83
2022/02/27 01:48:03;;;;;;;4.20;2.10;;;;;;;;;;5022313;28;20694;-82
2022/02/27 01:50:29;;;;;;;6.07;2.40;;;;;;;;;;5052393;28;20180;-83
2022/02/27 01:52:55;;;;;;;5.43;2.30;;;;;;;;;;5018732;28;20179;-83
2022/02/27 01:55:21;;;;;;;5.63;2.40;;;;;;;;;;5019950;28;20252;-83
2022/02/27 01:57:47;;;;;;;3.93;2.53;;;;;;;;;;5040253;28;20602;-84
2022/02/27 02:00:14;;;;;;;8.20;2.77;;;;;;;;;;5040887;28;20179;-83
2022/02/27 02:02:40;;;;;;;6.67;2.17;;;;;;;;;;5022635;28;20261;-83
2022/02/27 02:05:06;;;;;;;9.30;2.43;;;;;;;;;;5048118;28;20183;-83
2022/02/27 02:07:32;;;;;;;9.23;2.50;;;;;;;;;;5032871;28;20630;-82
2022/02/27 02:09:58;;;;;;;5.93;2.43;;;;;;;;;;5040106;28;20190;-82
2022/02/27 02:12:25;;;;;;;7.57;2.50;;;;;;;;;;5030779;28;20664;-82
2022/02/27 02:14:51;;;;;;;6.60;2.40;;;;;;;;;;5033796;28;20182;-83
2022/02/27 02:17:17;;;;;;;8.30;2.60;;;;;;;;;;5039324;28;20182;-82
2022/02/27 02:19:43;;;;;;;7.50;4.30;;;;;;;;;;5050882;28;20271;-83
2022/02/27 02:22:09;;;;;;;6.13;3.53;;;;;;;;;;5021178;28;20236;-81
2022/02/27 02:24:35;;;;;;;8.60;3.37;;;;;;;;;;5019855;28;20178;-81
2022/02/27 02:27:01;;;;;;;5.77;3.30;;;;;;;;;;5022527;28;20250;-82
2022/02/27 02:29:27;;;;;;;7.13;2.97;;;;;;;;;;5039003;28;20206;-83
2022/02/27 02:31:55;;;;;;;13.60;5.30;;;;;;;;;;5038306;28;20549;-83
2022/02/27 02:34:21;;;;;;;6.50;3.00;;;;;;;;;;5037170;28;20209;-83
2022/02/27 02:36:47;;;;;;;6.47;3.27;;;;;;;;;;5041130;28;20191;-82
2022/02/27 02:39:17;;;;;;;7.00;3.50;;;;;;;;;;5039338;28;20681;-82
2022/02/27 02:41:43;;;;;;;8.67;3.23;;;;;;;;;;5027407;28;20576;-83
2022/02/27 02:44:10;;;;;;;8.30;3.23;;;;;;;;;;5036078;28;20655;-82
2022/02/27 02:46:36;;;;;;;7.53;3.67;;;;;;;;;;5028439;28;20639;-83
2022/02/27 02:49:03;;;;;;;5.67;3.47;;;;;;;;;;5038025;28;20213;-83
2022/02/27 02:51:29;;;;;;;8.30;4.13;;;;;;;;;;5048486;28;20186;-83
2022/02/27 02:53:55;;;;;;;9.33;3.80;;;;;;;;;;5052391;28;20637;-83
2022/02/27 02:56:21;;;;;;;6.93;3.30;;;;;;;;;;5031208;28;20183;-83
2022/02/27 02:58:48;;;;;;;5.80;2.80;;;;;;;;;;5027454;28;20301;-82
2022/02/27 03:01:15;;;;;;;7.67;4.07;;;;;;;;;;5041439;28;20914;-84
2022/02/27 03:03:42;;;;;;;8.53;3.40;;;;;;;;;;5030338;28;20274;-83
2022/02/27 03:06:11;;;;;;;8.90;2.87;;;;;;;;;;5016831;28;20624;-83
2022/02/27 03:08:41;;;;;;;8.87;3.13;;;;;;;;;;5036174;28;20200;-83
2022/02/27 03:11:08;;;;;;;3.77;2.97;;;;;;;;;;5024792;28;20199;-83
2022/02/27 03:13:34;;;;;;;9.83;4.37;;;;;;;;;;5041762;28;20264;-83
2022/02/27 03:16:00;;;;;;;6.27;3.77;;;;;;;;;;5037479;28;20185;-82
2022/02/27 03:18:27;;;;;;;9.17;3.83;;;;;;;;;;5019567;28;20233;-83
2022/02/27 03:20:53;;;;;;;5.07;3.70;;;;;;;;;;5045425;28;20255;-83
2022/02/27 03:23:19;;;;;;;10.60;4.00;;;;;;;;;;5043784;28;20186;-82
2022/02/27 03:25:45;;;;;;;7.27;3.40;;;;;;;;;;5044484;28;20576;-83
2022/02/27 03:28:11;;;;;;;11.90;4.20;;;;;;;;;;5032994;28;20218;-82
2022/02/27 03:30:38;;;;;;;10.10;3.53;;;;;;;;;;5039577;28;20181;-83
2022/02/27 03:33:07;;;;;;;9.60;3.90;;;;;;;;;;5037335;28;20314;-83
2022/02/27 03:35:33;;;;;;;6.30;3.20;;;;;;;;;;5044448;28;20183;-83
2022/02/27 03:37:59;;;;;;;6.93;3.03;;;;;;;;;;5016798;28;20207;-83
2022/02/27 03:40:26;;;;;;;9.73;3.37;;;;;;;;;;5032763;28;20183;-82
2022/02/27 03:42:52;;;;;;;6.73;3.53;;;;;;;;;;5018094;28;20262;-83
2022/02/27 03:45:18;;;;;;;5.47;3.50;;;;;;;;;;5016943;28;20183;-83
2022/02/27 03:47:44;;;;;;;9.50;3.60;;;;;;;;;;5051542;28;20547;-83
2022/02/27 03:50:11;;;;;;;8.30;3.83;;;;;;;;;;5037788;28;20229;-83
2022/02/27 03:52:37;;;;;;;6.80;3.90;;;;;;;;;;5048076;28;20191;-82
2022/02/27 03:55:05;;;;;;;8.70;3.40;;;;;;;;;;5023017;28;20597;-82
2022/02/27 03:57:31;;;;;;;7.87;4.10;;;;;;;;;;5033908;28;20187;-83
2022/02/27 03:59:57;;;;;;;6.73;4.57;;;;;;;;;;5036588;28;20198;-83
2022/02/27 04:02:23;;;;;;;11.00;4.20;;;;;;;;;;5039843;28;20288;-83
2022/02/27 04:04:49;;;;;;;7.60;4.43;;;;;;;;;;5022156;28;20560;-83
2022/02/27 04:07:15;;;;;;;11.10;5.63;;;;;;;;;;5032839;28;20234;-83
2022/02/27 04:09:41;;;;;;;8.37;5.33;;;;;;;;;;5034768;28;20201;-83
2022/02/27 04:12:08;;;;;;;9.27;4.50;;;;;;;;;;5023892;28;20182;-83
2022/02/27 04:14:34;;;;;;;7.00;4.50;;;;;;;;;;5035475;28;20189;-82
2022/02/27 04:16:59;;;;;;;10.53;4.60;;;;;;;;;;5032926;28;20257;-83
2022/02/27 04:19:25;;;;;;;8.20;4.20;;;;;;;;;;5020761;28;20250;-83
2022/02/27 04:21:52;;;;;;;8.83;4.20;;;;;;;;;;5043529;28;20224;-83
2022/02/27 04:24:18;;;;;;;7.17;4.13;;;;;;;;;;5057228;28;20637;-83
2022/02/27 04:26:44;;;;;;;6.27;4.20;;;;;;;;;;5040441;28;20181;-82
2022/02/27 04:29:10;;;;;;;10.87;4.20;;;;;;;;;;5023465;28;20558;-82
2022/02/27 04:31:37;;;;;;;10.83;5.27;;;;;;;;;;5023485;28;20194;-82
2022/02/27 04:34:03;;;;;;;7.93;3.77;;;;;;;;;;5020429;28;20251;-82
2022/02/27 04:36:29;;;;;;;7.47;4.20;;;;;;;;;;5036577;28;20182;-82
2022/02/27 04:38:55;;;;;;;8.10;3.20;;;;;;;;;;5023390;28;20680;-82
2022/02/27 04:41:21;;;;;;;5.10;2.90;;;;;;;;;;5045352;28;20231;-82
2022/02/27 04:43:48;;;;;;;8.17;3.67;;;;;;;;;;5039505;28;20182;-82
2022/02/27 04:46:14;;;;;;;5.17;2.83;;;;;;;;;;5029609;28;20214;-82
2022/02/27 04:48:40;;;;;;;11.90;2.87;;;;;;;;;;5029626;28;20205;-82
2022/02/27 04:51:07;;;;;;;5.17;2.80;;;;;;;;;;5040923;28;20184;-82
2022/02/27 04:53:33;;;;;;;5.40;2.67;;;;;;;;;;5056274;28;20544;-82
2022/02/27 04:55:59;;;;;;;7.77;2.80;;;;;;;;;;5047829;28;20182;-83
2022/02/27 04:58:25;;;;;;;13.17;2.97;;;;;;;;;;5026877;28;20205;-83
2022/02/27 05:00:51;;;;;;;4.93;2.53;;;;;;;;;;5043321;28;20193;-83
2022/02/27 05:03:17;;;;;;;5.27;2.43;;;;;;;;;;5054338;28;20188;-83
2022/02/27 05:05:43;;;;;;;8.10;2.53;;;;;;;;;;5049515;28;20175;-83
2022/02/27 05:08:09;;;;;;;7.37;2.33;;;;;;;;;;5027596;28;20716;-84
2022/02/27 05:10:36;;;;;;;5.47;2.17;;;;;;;;;;5014965;28;20552;-84
2022/02/27 05:13:02;;;;;;;6.70;2.17;;;;;;;;;;5031155;28;20185;-84
2022/02/27 05:15:28;;;;;;;8.27;2.77;;;;;;;;;;5016226;28;20646;-84
2022/02/27 05:17:55;;;;;;;7.07;2.83;;;;;;;;;;5028207;28;20190;-84
2022/02/27 05:20:21;;;;;;;5.77;2.80;;;;;;;;;;5022321;28;20581;-83
2022/02/27 05:22:48;;;;;;;6.00;3.00;;;;;;;;;;5025817;28;20278;-83
2022/02/27 05:25:18;;;;;;;5.27;3.17;;;;;;;;;;5033719;28;20272;-83
2022/02/27 05:27:45;;;;;;;6.57;3.40;;;;;;;;;;5028930;28;20176;-84
2022/02/27 05:30:12;;;;;;;4.83;2.90;;;;;;;;;;5032939;28;20186;-83
2022/02/27 05:32:38;;;;;;;13.90;3.87;;;;;;;;;;5029184;28;20214;-83
2022/02/27 05:35:05;;;;;;;10.10;3.87;;;;;;;;;;5018722;28;20186;-83
2022/02/27 05:37:31;;;;;;;10.17;4.80;;;;;;;;;;5051151;28;20200;-82
2022/02/27 05:39:57;;;;;;;8.10;4.47;;;;;;;;;;5037768;28;20194;-84
2022/02/27 05:42:23;;;;;;;12.07;5.10;;;;;;;;;;5054665;28;20197;-84
2022/02/27 05:44:49;;;;;;;9.60;3.80;;;;;;;;;;5056641;28;20284;-84
2022/02/27 05:47:15;;;;;;;8.93;4.47;;;;;;;;;;5055348;28;20178;-81
2022/02/27 05:49:41;;;;;;;8.93;4.70;;;;;;;;;;5047629;28;20189;-84
2022/02/27 05:52:07;;;;;;;7.80;3.70;;;;;;;;;;5042732;28;20701;-84
2022/02/27 05:54:33;;;;;;;9.50;3.87;;;;;;;;;;5037463;28;20212;-83
2022/02/27 05:56:59;;;;;;;9.27;3.23;;;;;;;;;;5045014;28;20225;-83
2022/02/27 05:59:25;;;;;;;12.87;3.60;;;;;;;;;;5026358;28;20197;-83
2022/02/27 06:01:51;;;;;;;9.07;3.60;;;;;;;;;;5046059;28;20214;-83
2022/02/27 06:04:17;;;;;;;12.90;4.10;;;;;;;;;;5030534;28;20653;-83
2022/02/27 06:06:43;;;;;;;9.20;3.30;;;;;;;;;;5027841;28;20185;-84
2022/02/27 06:09:10;;;;;;;13.03;3.87;;;;;;;;;;5047589;28;20200;-83
2022/02/27 06:11:36;;;;;;;9.47;4.13;;;;;;;;;;5053511;28;20177;-83
2022/02/27 06:14:02;;;;;;;10.60;4.37;;;;;;;;;;5027832;28;20615;-83
2022/02/27 06:16:28;;;;;;;10.03;4.03;;;;;;;;;;5037252;28;20190;-84
2022/02/27 06:18:54;;;;;;;9.73;4.67;;;;;;;;;;5016866;28;20206;-83
2022/02/27 06:21:20;;;;;;;6.97;4.27;;;;;;;;;;5028311;28;20553;-83
2022/02/27 06:23:46;;;;;;;10.37;4.60;;;;;;;;;;5037111;28;20182;-83
2022/02/27 06:26:12;;;;;;;8.07;4.60;;;;;;;;;;5046927;28;20181;-83
2022/02/27 06:28:38;;;;;;;15.97;4.60;;;;;;;;;;5024655;28;20214;-84
2022/02/27 06:31:04;;;;;;;8.93;4.73;;;;;;;;;;5028058;28;20171;-83
2022/02/27 06:33:30;;;;;;;11.83;4.60;;;;;;;;;;5053959;28;20239;-84
2022/02/27 06:35:56;;;;;;;7.70;4.47;;;;;;;;;;5026630;28;20198;-83
2022/02/27 06:38:23;;;;;;;11.00;4.73;;;;;;;;;;5050676;28;20221;-83
2022/02/27 06:40:49;;;;;;;11.93;4.80;;;;;;;;;;5044748;28;20181;-84
2022/02/27 06:43:15;;;;;;;10.17;4.57;;;;;;;;;;5047159;28;20194;-82
2022/02/27 06:45:41;;;;;;;10.93;4.80;;;;;;;;;;5039407;28;20185;-83
2022/02/27 06:48:07;;;;;;;6.80;4.13;;;;;;;;;;5035821;28;20194;-83
2022/02/27 06:50:33;;;;;;;11.03;4.83;;;;;;;;;;5033171;28;20566;-83
2022/02/27 06:52:59;;;;;;;6.37;4.33;;;;;;;;;;5054231;28;20186;-83
2022/02/27 06:55:25;;;;;;;11.93;5.10;;;;;;;;;;5045680;28;20190;-83
2022/02/27 06:57:52;;;;;;;9.57;4.60;;;;;;;;;;5043573;28;20209;-83
2022/02/27 07:00:18;;;;;;;9.03;5.20;;;;;;;;;;5047802;28;20201;-83
2022/02/27 07:02:45;;;;;;;10.97;4.80;;;;;;;;;;5020607;28;20199;-83
2022/02/27 07:05:11;;;;;;;11.30;4.40;;;;;;;;;;5029888;28;20219;-84
2022/02/27 07:07:37;;;;;;;9.27;4.67;;;;;;;;;;5059375;28;20593;-84
2022/02/27 07:10:04;;;;;;;8.73;4.63;;;;;;;;;;5045520;28;20174;-83
2022/02/27 07:12:31;;;;;;;7.80;4.27;;;;;;;;;;5058614;28;20205;-83
2022/02/27 07:14:57;;;;;;;8.17;4.50;;;;;;;;;;5041604;28;20178;-84
2022/02/27 07:17:24;;;;;;;15.80;7.27;;;;;;;;;;5046052;28;20193;-84
2022/02/27 07:19:51;;;;;;;10.97;5.17;;;;;;;;;;5043878;28;20206;-85
2022/02/27 07:22:17;;;;;;;11.87;4.83;;;;;;;;;;5050854;28;20567;-84
2022/02/27 07:24:43;;;;;;;8.07;4.60;;;;;;;;;;5050596;28;20178;-84
2022/02/27 07:27:09;;;;;;;11.87;5.20;;;;;;;;;;5036811;28;20192;-83
2022/02/27 07:29:35;;;;;;;12.60;4.63;;;;;;;;;;5018695;28;20627;-84
2022/02/27 07:32:01;;;;;;;8.73;4.33;;;;;;;;;;5037390;28;20189;-83
2022/02/27 07:34:28;;;;;;;11.93;4.83;;;;;;;;;;5057992;28;20182;-82
2022/02/27 07:36:55;;;;;;;11.67;4.50;;;;;;;;;;5056884;28;20184;-84
2022/02/27 07:39:22;;;;;;;14.57;5.87;;;;;;;;;;5041706;28;20236;-83
2022/02/27 07:41:48;;;;;;;9.47;4.60;;;;;;;;;;5051000;28;20208;-83
2022/02/27 07:44:14;;;;;;;8.57;4.97;;;;;;;;;;5056775;28;20185;-84
2022/02/27 07:46:40;;;;;;;9.67;5.13;;;;;;;;;;5044680;28;20175;-84
2022/02/27 07:49:07;;;;;;;12.43;4.67;;;;;;;;;;5041828;28;20189;-84
2022/02/27 07:51:33;;;;;;;9.03;4.87;;;;;;;;;;5047289;28;20214;-83
2022/02/27 07:53:59;;;;;;;6.07;4.43;;;;;;;;;;5037511;28;20190;-84
2022/02/27 07:56:25;;;;;;;9.83;4.47;;;;;;;;;;5037748;28;20262;-84
2022/02/27 07:58:54;;;;;;;7.53;4.67;;;;;;;;;;5049434;28;20209;-84
2022/02/27 08:01:20;;;;;;;7.57;4.40;;;;;;;;;;5040711;28;20679;-83
2022/02/27 08:03:47;;;;;;;14.90;4.80;;;;;;;;;;5044865;28;20185;-83
2022/02/27 08:06:13;;;;;;;9.93;4.67;;;;;;;;;;5037311;28;20182;-84
2022/02/27 08:08:39;;;;;;;10.17;4.50;;;;;;;;;;5036959;28;20281;-84
2022/02/27 08:11:08;;;;;;;12.33;4.63;;;;;;;;;;5038089;28;20180;-85
2022/02/27 08:13:37;;;;;;;8.33;4.60;;;;;;;;;;5045580;28;20234;-84
2022/02/27 08:16:03;;;;;;;7.37;4.40;;;;;;;;;;5044097;28;20178;-83
2022/02/27 08:18:30;;;;;;;7.90;4.40;;;;;;;;;;5038939;28;20285;-83
2022/02/27 08:20:56;;;;;;;6.57;4.20;;;;;;;;;;5024949;28;20191;-82
2022/02/27 08:23:23;;;;;;;7.53;5.63;;;;;;;;;;5037337;28;20187;-82
2022/02/27 08:25:49;;;;;;;9.77;7.40;;;;;;;;;;5056532;28;20326;-82
2022/02/27 08:28:16;;;;;;;8.77;4.60;;;;;;;;;;5049052;28;20565;-82
2022/02/27 08:30:42;;;;;;;10.77;7.30;;;;;;;;;;5036100;28;20226;-82
2022/02/27 08:33:08;;;;;;;26.77;15.60;;;;;;;;;;5035194;28;20652;-82
2022/02/27 08:35:34;;;;;;;39.73;21.63;;;;;;;;;;5024135;28;20582;-83
2022/02/27 08:38:00;;;;;;;15.47;11.57;;;;;;;;;;5033015;28;20195;-82
2022/02/27 08:40:27;;;;;;;6.47;3.53;;;;;;;;;;5036643;28;20643;-83
2022/02/27 08:42:57;;;;;;;11.67;7.63;;;;;;;;;;5037915;28;20230;-82
2022/02/27 08:45:23;;;;;;;10.73;5.80;;;;;;;;;;5037258;28;20546;-83
2022/02/27 08:47:50;;;;;;;26.47;17.13;;;;;;;;;;5031859;28;20184;-82
2022/02/27 08:50:16;;;;;;;11.20;7.73;;;;;;;;;;5032702;28;20206;-81
2022/02/27 08:52:42;;;;;;;14.33;10.10;;;;;;;;;;5034869;28;20195;-82
2022/02/27 08:55:09;;;;;;;8.67;6.60;;;;;;;;;;5032518;28;20192;-82
2022/02/27 08:57:35;;;;;;;6.00;4.07;;;;;;;;;;5031877;28;20670;-81
2022/02/27 09:00:01;;;;;;;8.33;6.57;;;;;;;;;;5027075;28;20218;-83
2022/02/27 09:02:27;;;;;;;7.73;4.07;;;;;;;;;;5033779;28;20199;-82
2022/02/27 09:04:53;;;;;;;14.37;10.17;;;;;;;;;;5038977;28;20187;-82
2022/02/27 09:07:19;;;;;;;15.93;10.27;;;;;;;;;;5031115;28;20241;-85
2022/02/27 09:09:45;;;;;;;6.07;3.73;;;;;;;;;;5032432;28;20580;-82
2022/02/27 09:12:12;;;;;;;5.73;2.90;;;;;;;;;;5026387;28;20556;-82
2022/02/27 09:14:38;;;;;;;4.90;3.10;;;;;;;;;;5035253;28;20271;-81
2022/02/27 09:17:04;;;;;;;9.30;3.30;;;;;;;;;;5041077;28;20634;-81
2022/02/27 09:19:31;;;;;;;6.33;3.00;;;;;;;;;;5037234;28;20206;-82
2022/02/27 09:21:57;;;;;;;6.53;4.97;;;;;;;;;;5029776;28;20363;-83
2022/02/27 09:24:23;;;;;;;6.20;3.37;;;;;;;;;;5029794;28;20181;-82
2022/02/27 09:26:49;;;;;;;7.73;4.00;;;;;;;;;;5030781;28;20174;-82
2022/02/27 09:29:16;;;;;;;8.23;5.53;;;;;;;;;;5032968;28;20202;-81
2022/02/27 09:31:42;;;;;;;9.47;5.37;;;;;;;;;;5025316;28;20547;-82
2022/02/27 09:34:09;;;;;;;5.47;4.50;;;;;;;;;;5028570;28;20187;-80
2022/02/27 09:36:35;;;;;;;4.80;2.83;;;;;;;;;;5033017;28;20644;-83
2022/02/27 09:39:02;;;;;;;4.73;3.00;;;;;;;;;;5031655;28;20572;-81
2022/02/27 09:41:28;;;;;;;3.60;3.10;;;;;;;;;;5036756;28;20753;-81
2022/02/27 09:43:59;;;;;;;8.57;5.63;;;;;;;;;;5034364;28;20185;-82
2022/02/27 09:46:26;;;;;;;5.60;3.00;;;;;;;;;;5028380;28;20208;-84
2022/02/27 09:48:52;;;;;;;9.30;3.23;;;;;;;;;;5034176;28;20224;-83
2022/02/27 09:51:18;;;;;;;3.30;2.77;;;;;;;;;;5025897;28;20740;-83
2022/02/27 09:53:44;;;;;;;4.23;2.80;;;;;;;;;;5032312;28;20185;-84
2022/02/27 09:56:10;;;;;;;3.90;3.07;;;;;;;;;;5031946;28;20184;-82
2022/02/27 09:58:37;;;;;;;4.13;2.87;;;;;;;;;;5027357;28;20247;-83
2022/02/27 10:01:04;;;;;;;3.33;2.60;;;;;;;;;;5033151;28;20187;-83
2022/02/27 10:03:31;;;;;;;4.17;3.00;;;;;;;;;;5033192;28;20238;-83
2022/02/27 10:06:06;;;;;;;4.07;3.37;;;;;;;;;;5037253;28;20188;-84
2022/02/27 10:08:59;;;;;;;4.63;2.87;;;;;;;;;;5029911;28;20219;-82
2022/02/27 10:11:25;;;;;;;4.60;2.80;;;;;;;;;;5048440;28;20188;-82
2022/02/27 10:13:55;;;;;;;5.57;3.10;;;;;;;;;;5034317;28;20275;-82
2022/02/27 10:16:25;;;;;;;3.13;2.70;;;;;;;;;;5037679;28;20196;-82
2022/02/27 10:18:52;;;;;;;4.37;3.10;;;;;;;;;;5031959;28;20275;-82
2022/02/27 10:21:21;;;;;;;6.00;3.57;;;;;;;;;;5044191;28;20234;-82
2022/02/27 10:24:00;;;;;;;3.93;3.50;;;;;;;;;;5038112;28;20180;-82
2022/02/27 10:26:28;;;;;;;4.47;3.23;;;;;;;;;;5036833;28;20181;-83
2022/02/27 10:29:05;;;;;;;4.83;3.30;;;;;;;;;;5036302;28;20201;-82
2022/02/27 10:31:31;;;;;;;4.67;2.97;;;;;;;;;;5037210;28;20184;-82
2022/02/27 10:33:57;;;;;;;3.50;2.63;;;;;;;;;;5037795;28;20264;-80
2022/02/27 10:36:23;;;;;;;5.07;2.80;;;;;;;;;;5039528;28;20242;-83
2022/02/27 10:38:52;;;;;;;3.87;2.80;;;;;;;;;;5039570;28;20202;-82
2022/02/27 10:41:21;;;;;;;4.53;2.73;;;;;;;;;;5049165;28;20207;-82
2022/02/27 10:43:48;;;;;;;6.60;3.00;;;;;;;;;;5047107;28;20187;-83
2022/02/27 10:46:15;;;;;;;5.63;2.90;;;;;;;;;;5053665;28;20195;-83
2022/02/27 10:48:41;;;;;;;5.03;3.00;;;;;;;;;;5034525;28;20190;-83
2022/02/27 10:51:08;;;;;;;4.90;2.97;;;;;;;;;;5023298;28;20184;-83
2022/02/27 10:53:35;;;;;;;4.87;2.97;;;;;;;;;;5051649;28;20196;-83
2022/02/27 10:56:04;;;;;;;3.10;2.77;;;;;;;;;;5040284;28;20190;-83
2022/02/27 10:58:40;;;;;;;4.83;2.80;;;;;;;;;;5019947;28;20198;-83
2022/02/27 11:01:08;;;;;;;6.30;3.00;;;;;;;;;;5030776;28;20235;-83
2022/02/27 11:03:36;;;;;;;2.90;2.60;;;;;;;;;;5023156;28;20186;-85
2022/02/27 11:06:02;;;;;;;3.30;2.60;;;;;;;;;;5025623;28;20214;-83
2022/02/27 11:08:28;;;;;;;4.63;2.50;;;;;;;;;;5031917;28;20206;-83
2022/02/27 11:10:54;;;;;;;5.73;2.90;;;;;;;;;;5018026;28;20182;-84
2022/02/27 11:13:20;;;;;;;3.47;2.67;;;;;;;;;;5029556;28;20189;-84
2022/02/27 11:15:46;;;;;;;3.03;2.40;;;;;;;;;;5024644;28;20661;-83
2022/02/27 11:18:12;;;;;;;2.63;2.20;;;;;;;;;;5037119;28;20204;-83
2022/02/27 11:20:40;;;;;;;3.20;2.73;;;;;;;;;;5034643;28;20206;-86
2022/02/27 11:23:06;;;;;;;3.37;2.90;;;;;;;;;;5038405;28;20198;-84
2022/02/27 11:25:32;;;;;;;2.77;2.50;;;;;;;;;;5050908;28;20217;-85
2022/02/27 11:28:12;;;;;;;2.50;2.30;;;;;;;;;;5036377;28;20189;-84
2022/02/27 11:30:39;;;;;;;2.73;2.23;;;;;;;;;;5048504;28;20174;-84
2022/02/27 11:33:06;;;;;;;3.37;2.33;;;;;;;;;;5047595;28;20264;-85
2022/02/27 11:35:39;;;;;;;2.40;2.20;;;;;;;;;;5035105;28;20183;-85
2022/02/27 11:38:06;;;;;;;2.50;1.93;;;;;;;;;;5026101;28;20264;-86
2022/02/27 11:40:43;;;;;;;2.93;1.97;;;;;;;;;;5035623;28;20236;-85
2022/02/27 11:43:09;;;;;;;2.47;2.10;;;;;;;;;;5035645;28;20787;-84
2022/02/27 11:45:38;;;;;;;2.13;1.93;;;;;;;;;;5049110;28;20257;-85
2022/02/27 11:48:04;;;;;;;4.80;2.37;;;;;;;;;;5032359;28;20665;-84
2022/02/27 11:50:34;;;;;;;3.53;2.40;;;;;;;;;;5036440;28;20184;-84
2022/02/27 11:53:00;;;;;;;2.23;1.97;;;;;;;;;;5033918;28;20182;-85
2022/02/27 11:55:40;;;;;;;2.47;1.87;;;;;;;;;;5037120;28;20650;-84
2022/02/27 11:58:07;;;;;;;6.23;2.73;;;;;;;;;;5024973;28;20218;-84
2022/02/27 12:00:40;;;;;;;2.40;1.90;;;;;;;;;;5034560;28;20179;-84
2022/02/27 12:03:24;;;;;;;4.33;2.10;;;;;;;;;;5034768;28;20533;-85
2022/02/27 12:05:52;;;;;;;2.87;2.00;;;;;;;;;;5035920;28;20653;-83
2022/02/27 12:08:18;;;;;;;3.47;2.57;;;;;;;;;;5035067;28;20252;-85
2022/02/27 12:10:44;;;;;;;4.57;2.43;;;;;;;;;;5037776;28;20652;-84
2022/02/27 12:13:17;;;;;;;2.77;2.17;;;;;;;;;;5036710;28;20187;-85
2022/02/27 12:15:43;;;;;;;2.87;2.37;;;;;;;;;;5035239;28;20586;-84
2022/02/27 12:18:15;;;;;;;3.33;2.53;;;;;;;;;;5050406;28;20264;-85
2022/02/27 12:20:43;;;;;;;2.97;1.90;;;;;;;;;;5036441;28;20639;-83
2022/02/27 12:23:10;;;;;;;2.70;2.30;;;;;;;;;;5036413;28;20194;-83
2022/02/27 12:25:37;;;;;;;2.43;2.00;;;;;;;;;;5022454;28;20210;-83
2022/02/27 12:28:04;;;;;;;2.30;2.10;;;;;;;;;;5037440;28;20190;-83
2022/02/27 12:30:30;;;;;;;2.03;1.77;;;;;;;;;;5052101;28;20170;-83
2022/02/27 12:33:06;;;;;;;2.50;2.30;;;;;;;;;;5027941;28;20263;-84
2022/02/27 12:35:33;;;;;;;2.53;2.20;;;;;;;;;;5022818;28;20242;-83
2022/02/27 12:38:03;;;;;;;3.37;2.60;;;;;;;;;;5054759;28;20182;-84
2022/02/27 12:40:30;;;;;;;3.37;2.17;;;;;;;;;;5059559;28;20204;-83
2022/02/27 12:43:03;;;;;;;2.97;2.13;;;;;;;;;;5048432;28;20201;-85
2022/02/27 12:45:36;;;;;;;4.20;2.13;;;;;;;;;;5029796;28;20570;-85
2022/02/27 12:48:11;;;;;;;3.23;2.20;;;;;;;;;;5037803;28;20206;-83
2022/02/27 12:50:47;;;;;;;2.43;2.20;;;;;;;;;;5035437;28;20579;-84
2022/02/27 12:53:14;;;;;;;2.07;1.93;;;;;;;;;;5052874;28;20216;-84
2022/02/27 12:55:40;;;;;;;3.43;2.20;;;;;;;;;;5046365;28;20175;-84
2022/02/27 12:58:08;;;;;;;2.37;2.17;;;;;;;;;;5034557;28;20198;-83
2022/02/27 13:00:35;;;;;;;4.60;2.57;;;;;;;;;;5040594;28;20178;-83
2022/02/27 13:03:11;;;;;;;2.90;2.13;;;;;;;;;;5039129;28;20193;-84
2022/02/27 13:05:37;;;;;;;2.40;2.10;;;;;;;;;;5037408;28;20241;-84
2022/02/27 13:08:04;;;;;;;2.97;2.20;;;;;;;;;;5037226;28;20688;-83
2022/02/27 13:10:30;;;;;;;3.73;2.43;;;;;;;;;;5050472;28;20174;-84
2022/02/27 13:12:57;;;;;;;1.83;1.73;;;;;;;;;;5021270;28;20273;-84
2022/02/27 13:15:23;;;;;;;3.23;2.93;;;;;;;;;;5041861;28;20186;-85
2022/02/27 13:17:49;;;;;;;3.97;2.03;;;;;;;;;;5056274;22;20256;-82
2022/02/27 13:20:18;;;;;;;3.17;2.13;;;;;;;;;;5039354;28;20170;-80
2022/02/27 13:22:47;;;;;;;3.10;2.27;;;;;;;;;;5020213;28;20601;-82
2022/02/27 13:25:14;;;;;;;2.87;2.00;;;;;;;;;;5019434;28;20174;-83
2022/02/27 13:27:44;;;;;;;3.97;2.70;;;;;;;;;;5036938;28;20631;-84
2022/02/27 13:30:11;;;;;;;3.73;3.27;;;;;;;;;;5019475;28;20649;-83
2022/02/27 13:32:41;;;;;;;3.03;2.50;;;;;;;;;;5035666;28;20704;-83
2022/02/27 13:35:29;;;;;;;2.63;2.30;;;;;;;;;;5037373;28;20182;-82
2022/02/27 13:37:55;;;;;;;2.30;2.07;;;;;;;;;;5043278;28;20256;-83
2022/02/27 13:40:25;;;;;;;2.27;2.07;;;;;;;;;;5045110;28;20231;-83
2022/02/27 13:45:48;;;;;;;3.07;2.43;;;;;;;;;;4985755;28;20172;-82
2022/02/27 13:48:16;;;;;;;2.80;2.40;;;;;;;;;;4967614;28;20207;-83
2022/02/27 13:50:45;;;;;;;5.10;2.30;;;;;;;;;;4997208;28;20562;-83
2022/02/27 13:53:15;;;;;;;3.23;2.57;;;;;;;;;;4996082;28;20215;-83
2022/02/27 13:56:00;;;;;;;4.23;2.57;;;;;;;;;;5000772;28;20283;-84
2022/02/27 13:58:38;;;;;;;3.80;2.90;;;;;;;;;;5000861;28;20331;-83
2022/02/27 14:02:05;;;;;;;3.50;2.77;;;;;;;;;;4984723;28;20238;-83
2022/02/27 14:04:15;;;;;;;2.30;2.10;;;;;;;;;;5021131;28;20178;-83
2022/02/27 14:06:53;;;;;;;2.97;2.30;;;;;;;;;;5027266;28;20289;-83
2022/02/27 14:09:22;;;;;;;2.60;2.40;;;;;;;;;;5027020;28;20186;-84
2022/02/27 14:12:00;;;;;;;2.73;2.40;;;;;;;;;;5043732;28;20179;-85
2022/02/27 14:14:54;;;;;;;3.40;3.10;;;;;;;;;;5034217;28;20186;-83
2022/02/27 14:17:28;;;;;;;2.50;2.30;;;;;;;;;;5026100;28;20234;-83
2022/02/27 14:20:15;;;;;;;2.57;2.20;;;;;;;;;;5034756;28;20184;-84
2022/02/27 14:23:00;;;;;;;3.10;2.80;;;;;;;;;;5031882;28;20214;-83
2022/02/27 14:25:35;;;;;;;3.50;2.67;;;;;;;;;;5027035;28;20187;-83
2022/02/27 14:28:15;;;;;;;3.07;2.77;;;;;;;;;;5041386;28;20193;-83
2022/02/27 14:30:41;;;;;;;2.93;2.70;;;;;;;;;;5042207;28;20170;-83
2022/02/27 14:33:11;;;;;;;3.70;2.43;;;;;;;;;;5041949;28;20183;-82
2022/02/27 14:35:38;;;;;;;3.87;2.10;;;;;;;;;;5041782;28;20677;-83
2022/02/27 14:38:04;;;;;;;3.27;2.97;;;;;;;;;;5038995;28;20218;-83
2022/02/27 14:40:31;;;;;;;3.07;2.43;;;;;;;;;;5040374;28;20735;-82
2022/02/27 14:42:57;;;;;;;2.80;2.33;;;;;;;;;;5043007;28;20731;-82
2022/02/27 14:45:23;;;;;;;3.63;2.83;;;;;;;;;;5041612;28;20170;-82